This is the latest recevied weather packets stored in our database for station/object VK6NP-1. If no packets are shown the sender has not sent any weather packets the latest 1 day(s).
| Time | Temp. | Humidity | Pressure | Rain* | Wind** | Luminosity | Snow |
|---|---|---|---|---|---|---|---|
| 1778035936 | 20° C | 57% | 1030.6 hPa | 0 mm | 0 m/s | - | - |
| 1778035636 | 20° C | 58% | 1030.6 hPa | 0 mm | 0 m/s | - | - |
| 1778035332 | 20° C | 58% | 1030.8 hPa | 0 mm | 0 m/s | - | - |
| 1778035033 | 20° C | 59% | 1030.8 hPa | 0 mm | 0 m/s | - | - |
| 1778034733 | 20° C | 58% | 1030.9 hPa | 0 mm | 0 m/s | - | - |
| 1778034430 | 19.44° C | 59% | 1031 hPa | 0 mm | 0 m/s | - | - |
| 1778034130 | 19.44° C | 60% | 1031 hPa | 0 mm | 0 m/s | - | - |
| 1778033831 | 18.89° C | 61% | 1031.1 hPa | 0 mm | 0 m/s | - | - |
| 1778033228 | 19.44° C | 61% | 1031.2 hPa | 0 mm | 0 m/s | - | - |
| 1778032625 | 19.44° C | 60% | 1031.2 hPa | 0 mm | 0 m/s | - | - |
| 1778032027 | 18.89° C | 62% | 1031.3 hPa | 0 mm | 0 m/s | - | - |
| 1778031724 | 18.89° C | 62% | 1031.4 hPa | 0 mm | 0 m/s | - | - |
| 1778031125 | 18.33° C | 64% | 1031.4 hPa | 0 mm | 0 m/s | - | - |
| 1778030820 | 17.78° C | 63% | 1031.5 hPa | 0 mm | 0 m/s | - | - |
| 1778030521 | 17.78° C | 64% | 1031.5 hPa | 0 mm | 0 m/s | - | - |
| 1778030221 | 17.78° C | 65% | 1031.6 hPa | 0 mm | 0 m/s | - | - |
| 1778029914 | 17.78° C | 65% | 1031.6 hPa | 0 mm | 0 m/s | - | - |
| 1778029736 | 17.78° C | 66% | 1031.6 hPa | 0 mm | 0 m/s | - | - |
| 1778029012 | 17.22° C | 68% | 1031.5 hPa | 0 mm | 0 m/s | - | - |
| 1778028713 | 17.22° C | 69% | 1031.4 hPa | 0 mm | 0 m/s | - | - |
| 1778028413 | 16.67° C | 69% | 1031.5 hPa | 0 mm | 0 m/s | - | - |
| 1778027810 | 16.11° C | 72% | 1031.4 hPa | 0 mm | 0 m/s | - | - |
| 1778027511 | 15.56° C | 75% | 1031.5 hPa | 0 mm | 0 m/s | - | - |
| 1778026306 | 14.44° C | 81% | 1031.3 hPa | 0 mm | 0 m/s | - | - |
| 1778025403 | 13.33° C | 84% | 1031.2 hPa | 0 mm | 0 m/s | - | - |
* Rain latest hour (hover to see other rain measurements)
** Current wind speed in m/s (hover to see current wind gust speed)